Terminal Aerodrome Forecast
Issued by NWS

Home | Current Version | Previous Version | Text Only | Print | Product List | Glossary On
Versions: 1 2 3 4 5 6 7 8 9 10 11 12 13 14 15
000
FTUS46 KLOX 272300
TAFPMD
TAF
KPMD 272329Z 2800/2824 08008KT P6SM SCT200
     FM280200 VRB04KT P6SM SCT200
     FM280500 19005KT P6SM BKN180
     FM281800 28008KT P6SM BKN130 BKN180=

USA.gov is the U.S. government's official web portal to all federal, state and local government web resources and services.